Time;durP1;ratioP1;P1;durP2;ratioP2;P2;SDS_P1;SDS_P2;PMS_P1;PMS_P2;Temp;Humidity;BMP_temperature;BMP_pressure;BME280_temperature;BME280_humidity;BME280_pressure;Samples;Min_cycle;Max_cycle;Signal;HPM_P1;HPM_P2
2021/09/15 00:02:20;;;;;;;10.32;9.23;;;21.00;96.30;;;;;;4988344;28;20505;-92
2021/09/15 00:04:46;;;;;;;10.80;9.38;;;21.00;96.40;;;;;;5024829;28;20025;-92
2021/09/15 00:07:11;;;;;;;10.05;8.90;;;21.00;96.40;;;;;;5025119;28;20090;-93
2021/09/15 00:09:37;;;;;;;10.45;8.77;;;21.00;96.40;;;;;;5006328;28;20025;-93
2021/09/15 00:12:03;;;;;;;11.23;9.18;;;21.00;96.40;;;;;;5015111;28;20026;-92
2021/09/15 00:14:29;;;;;;;10.52;7.72;;;21.00;96.50;;;;;;5011549;28;20033;-92
2021/09/15 00:16:54;;;;;;;9.52;8.27;;;21.00;96.50;;;;;;4990955;28;20030;-93
2021/09/15 00:19:20;;;;;;;10.07;8.43;;;21.00;96.50;;;;;;5013461;28;20078;-92
2021/09/15 00:21:46;;;;;;;8.68;7.32;;;21.00;96.50;;;;;;5018117;28;20096;-92
2021/09/15 00:24:12;;;;;;;9.10;7.80;;;21.00;96.50;;;;;;5031810;28;20025;-93
2021/09/15 00:26:37;;;;;;;9.05;7.28;;;21.00;96.50;;;;;;5001581;28;20029;-92
2021/09/15 00:29:03;;;;;;;9.20;8.18;;;21.00;96.50;;;;;;5004929;28;20049;-92
2021/09/15 00:31:28;;;;;;;9.93;7.50;;;21.00;96.50;;;;;;5012012;28;20475;-92
2021/09/15 00:33:54;;;;;;;8.20;7.40;;;21.00;96.50;;;;;;5001694;28;20026;-92
2021/09/15 00:36:20;;;;;;;11.60;8.05;;;21.00;96.40;;;;;;4994868;28;20055;-92
2021/09/15 00:38:45;;;;;;;12.88;8.02;;;21.00;96.40;;;;;;5004985;28;20087;-93
2021/09/15 00:41:11;;;;;;;10.27;7.57;;;21.00;96.40;;;;;;4990969;28;20029;-92
2021/09/15 00:44:10;;;;;;;9.65;7.50;;;21.00;96.40;;;;;;4993155;28;20029;-93
2021/09/15 00:46:39;;;;;;;10.18;7.95;;;21.00;96.40;;;;;;4974075;28;20041;-93
2021/09/15 00:49:06;;;;;;;9.18;7.72;;;20.90;96.40;;;;;;5001298;28;20490;-93
2021/09/15 00:51:35;;;;;;;10.57;7.97;;;20.90;96.40;;;;;;5031239;28;20544;-93
2021/09/15 00:54:04;;;;;;;9.63;7.45;;;20.90;96.40;;;;;;5025427;28;20017;-93
2021/09/15 00:56:30;;;;;;;8.25;7.35;;;20.90;96.40;;;;;;5007894;28;20029;-93
2021/09/15 00:58:58;;;;;;;8.82;7.40;;;20.90;96.40;;;;;;5001750;28;20497;-92
2021/09/15 01:01:24;;;;;;;7.70;6.90;;;20.90;96.30;;;;;;5013658;28;20048;-92
2021/09/15 01:03:50;;;;;;;13.07;8.18;;;20.90;96.40;;;;;;5007344;28;20033;-93
2021/09/15 01:06:16;;;;;;;8.23;6.95;;;20.90;96.40;;;;;;5011298;28;20470;-93
2021/09/15 01:08:42;;;;;;;11.95;7.63;;;20.90;96.40;;;;;;5016208;28;20036;-93
2021/09/15 01:11:09;;;;;;;8.52;7.10;;;20.90;96.30;;;;;;5011017;28;20033;-92
2021/09/15 01:13:36;;;;;;;9.75;7.55;;;20.90;96.30;;;;;;5029848;28;20104;-93
2021/09/15 01:16:02;;;;;;;9.15;7.47;;;20.90;96.40;;;;;;5006664;28;20022;-92
2021/09/15 01:18:27;;;;;;;8.50;7.03;;;20.90;96.30;;;;;;5035381;28;20407;-92
2021/09/15 01:20:55;;;;;;;12.70;7.28;;;20.90;96.30;;;;;;5023783;28;20033;-92
2021/09/15 01:23:20;;;;;;;8.55;7.18;;;20.90;96.30;;;;;;5003405;28;20036;-92
2021/09/15 01:25:46;;;;;;;9.25;7.55;;;20.80;96.30;;;;;;5016679;28;20029;-93
2021/09/15 01:28:12;;;;;;;7.82;6.90;;;20.90;96.30;;;;;;5016399;28;20021;-93
2021/09/15 01:30:39;;;;;;;9.48;7.97;;;20.80;96.30;;;;;;5017378;28;20044;-93
2021/09/15 01:33:08;;;;;;;9.93;7.47;;;20.80;96.30;;;;;;5017314;28;20021;-92
2021/09/15 01:35:34;;;;;;;8.13;6.93;;;20.80;96.30;;;;;;5017194;28;20025;-92
2021/09/15 01:38:00;;;;;;;8.52;7.55;;;20.80;96.30;;;;;;5016951;28;20048;-93
2021/09/15 01:40:25;;;;;;;9.15;7.30;;;20.80;96.30;;;;;;5000263;28;20022;-92
2021/09/15 01:42:51;;;;;;;9.25;7.38;;;20.80;96.30;;;;;;5000694;28;20037;-92
2021/09/15 01:45:17;;;;;;;9.75;7.80;;;20.80;96.30;;;;;;5000737;28;20021;-92
2021/09/15 01:47:43;;;;;;;7.90;6.72;;;20.80;96.30;;;;;;5000539;28;20062;-92
2021/09/15 01:50:09;;;;;;;8.52;7.28;;;20.80;96.30;;;;;;5034741;28;20024;-93
2021/09/15 01:52:35;;;;;;;9.63;7.63;;;20.80;96.30;;;;;;5029253;28;20451;-92
2021/09/15 01:55:01;;;;;;;10.20;7.20;;;20.80;96.20;;;;;;5000012;28;20076;-92
2021/09/15 01:57:32;;;;;;;10.57;8.02;;;20.80;96.20;;;;;;5010753;28;20116;-91
2021/09/15 01:59:59;;;;;;;11.30;7.53;;;20.80;96.20;;;;;;4985426;28;20053;-93
2021/09/15 02:02:25;;;;;;;9.23;7.72;;;20.70;96.20;;;;;;5001675;28;20041;-92
2021/09/15 02:04:51;;;;;;;8.43;7.20;;;20.70;96.20;;;;;;5019149;28;20021;-92
2021/09/15 02:07:17;;;;;;;7.60;6.40;;;20.70;96.20;;;;;;5026241;28;20087;-92
2021/09/15 02:09:42;;;;;;;8.57;7.32;;;20.70;96.20;;;;;;5022042;28;20479;-92
2021/09/15 02:12:08;;;;;;;8.32;7.15;;;20.70;96.20;;;;;;5019860;28;20120;-92
2021/09/15 02:14:34;;;;;;;8.82;7.45;;;20.70;96.20;;;;;;4989583;28;20033;-93
2021/09/15 02:17:00;;;;;;;8.88;7.00;;;20.70;96.20;;;;;;4999280;28;20029;-92
2021/09/15 02:19:25;;;;;;;12.65;7.45;;;20.70;96.20;;;;;;5030103;28;20417;-91
2021/09/15 02:21:51;;;;;;;8.98;7.50;;;20.60;96.20;;;;;;5009280;28;20025;-92
2021/09/15 02:24:17;;;;;;;8.70;7.13;;;20.60;96.20;;;;;;5020319;28;20092;-92
2021/09/15 02:26:43;;;;;;;9.30;6.80;;;20.60;96.30;;;;;;5017901;28;20029;-93
2021/09/15 02:29:09;;;;;;;7.82;7.03;;;20.60;96.20;;;;;;5024595;28;20017;-92
2021/09/15 02:31:34;;;;;;;8.70;6.85;;;20.60;96.20;;;;;;4993451;28;20030;-93
2021/09/15 02:34:00;;;;;;;8.77;6.75;;;20.50;96.10;;;;;;4989180;28;20072;-92
2021/09/15 02:36:26;;;;;;;7.97;6.93;;;20.50;96.10;;;;;;5003946;28;20136;-92
2021/09/15 02:38:52;;;;;;;9.27;6.82;;;20.50;96.10;;;;;;5020870;28;20037;-92
2021/09/15 02:41:18;;;;;;;10.60;7.60;;;20.50;96.10;;;;;;5057085;28;20029;-92
2021/09/15 02:43:44;;;;;;;9.40;7.20;;;20.40;96.10;;;;;;5027196;28;20033;-92
2021/09/15 02:46:10;;;;;;;9.35;7.22;;;20.40;96.20;;;;;;5037511;28;20075;-92
2021/09/15 02:48:35;;;;;;;8.55;6.85;;;20.40;96.20;;;;;;5012400;28;20099;-92
2021/09/15 02:51:01;;;;;;;7.97;6.88;;;20.40;96.20;;;;;;5017406;28;20025;-93
2021/09/15 02:53:27;;;;;;;8.55;6.72;;;20.30;96.30;;;;;;5011954;28;20086;-93
2021/09/15 02:55:53;;;;;;;9.02;7.07;;;20.30;96.30;;;;;;5039966;28;20033;-91
2021/09/15 02:58:18;;;;;;;10.25;7.30;;;20.30;96.40;;;;;;5006313;28;20059;-93
2021/09/15 03:00:44;;;;;;;8.95;7.78;;;20.30;96.40;;;;;;5039034;28;20051;-93
2021/09/15 03:03:10;;;;;;;9.95;7.18;;;20.30;96.40;;;;;;5022323;28;20025;-92
2021/09/15 03:05:36;;;;;;;8.75;7.55;;;20.30;96.40;;;;;;5039151;28;20088;-91
2021/09/15 03:08:01;;;;;;;8.82;7.25;;;20.30;96.50;;;;;;5006772;28;20056;-93
2021/09/15 03:10:29;;;;;;;10.38;6.80;;;20.30;96.50;;;;;;5027144;28;20025;-92
2021/09/15 03:12:55;;;;;;;9.13;7.18;;;20.30;96.50;;;;;;5008553;28;20025;-92
2021/09/15 03:15:21;;;;;;;8.80;7.63;;;20.30;96.50;;;;;;4989422;28;20022;-92
2021/09/15 03:17:46;;;;;;;10.02;7.80;;;20.30;96.50;;;;;;5014357;28;20025;-92
2021/09/15 03:20:12;;;;;;;8.77;7.28;;;20.30;96.50;;;;;;5038547;28;20549;-92
2021/09/15 03:22:38;;;;;;;9.95;7.55;;;20.30;96.60;;;;;;5022279;28;20115;-92
2021/09/15 03:25:05;;;;;;;9.85;7.90;;;20.30;96.60;;;;;;5038554;28;20021;-92
2021/09/15 03:27:30;;;;;;;9.60;6.90;;;20.30;96.60;;;;;;5021901;28;20036;-92
2021/09/15 03:29:56;;;;;;;9.02;7.35;;;20.30;96.60;;;;;;5037173;28;20017;-92
2021/09/15 03:32:22;;;;;;;8.98;7.38;;;20.30;96.70;;;;;;5038262;28;20371;-92
2021/09/15 03:34:47;;;;;;;9.40;8.25;;;20.30;96.70;;;;;;5010812;28;20017;-92
2021/09/15 03:37:13;;;;;;;9.05;8.00;;;20.30;96.70;;;;;;5019530;28;20348;-92
2021/09/15 03:39:39;;;;;;;9.18;7.68;;;20.30;96.70;;;;;;5014009;28;20566;-93
2021/09/15 03:42:05;;;;;;;9.02;7.50;;;20.30;96.80;;;;;;5017662;28;20134;-92
2021/09/15 03:44:32;;;;;;;7.90;7.10;;;20.30;96.80;;;;;;5023520;28;20047;-92
2021/09/15 03:46:58;;;;;;;9.80;7.50;;;20.20;96.80;;;;;;5010359;28;20099;-92
2021/09/15 03:49:24;;;;;;;9.40;7.10;;;20.20;96.80;;;;;;5016292;28;20057;-92
2021/09/15 03:51:49;;;;;;;9.38;7.32;;;20.20;96.80;;;;;;5018901;28;20026;-91
2021/09/15 03:54:16;;;;;;;9.13;7.70;;;20.20;96.80;;;;;;5019658;28;20013;-91
2021/09/15 03:56:42;;;;;;;9.18;7.22;;;20.20;96.80;;;;;;5022534;28;20053;-93
2021/09/15 03:59:08;;;;;;;10.02;7.78;;;20.20;96.80;;;;;;5008856;28;20061;-92
2021/09/15 04:01:34;;;;;;;10.68;7.95;;;20.20;96.80;;;;;;5039752;28;20024;-93
2021/09/15 04:03:59;;;;;;;9.07;7.65;;;20.20;96.90;;;;;;5000212;28;20041;-92
2021/09/15 04:06:25;;;;;;;10.50;8.57;;;20.20;96.90;;;;;;5026583;28;20071;-92
2021/09/15 04:08:51;;;;;;;9.52;7.85;;;20.20;97.00;;;;;;4993328;28;20049;-92
2021/09/15 04:11:17;;;;;;;10.15;8.13;;;20.20;97.00;;;;;;5012839;28;20036;-92
2021/09/15 04:13:42;;;;;;;9.43;7.97;;;20.20;97.00;;;;;;5015970;28;20015;-92
2021/09/15 04:16:08;;;;;;;9.13;7.60;;;20.20;97.00;;;;;;5030539;28;20116;-92
2021/09/15 04:18:34;;;;;;;11.93;7.95;;;20.20;97.00;;;;;;5033585;28;20029;-91
2021/09/15 04:21:00;;;;;;;8.93;7.70;;;20.20;97.10;;;;;;5024340;28;20040;-91
2021/09/15 04:31:24;;;;;;;9.05;7.68;;;20.20;97.10;;;;;;5027079;28;20113;-92
2021/09/15 04:33:50;;;;;;;9.20;7.82;;;20.20;97.10;;;;;;5021902;28;20029;-92
2021/09/15 04:36:16;;;;;;;9.45;8.25;;;20.20;97.10;;;;;;5028710;28;20053;-92
2021/09/15 04:38:42;;;;;;;9.57;7.63;;;20.20;97.20;;;;;;5017283;28;20036;-91
2021/09/15 04:41:08;;;;;;;7.97;7.07;;;20.20;97.10;;;;;;5013988;28;20128;-91
2021/09/15 04:43:33;;;;;;;11.00;7.53;;;20.20;97.20;;;;;;5015259;28;20079;-92
2021/09/15 04:45:59;;;;;;;9.52;7.85;;;20.20;97.20;;;;;;5022792;28;20032;-92
2021/09/15 04:48:25;;;;;;;7.95;7.15;;;20.20;97.20;;;;;;5037617;28;20031;-92
2021/09/15 04:50:51;;;;;;;9.18;7.68;;;20.20;97.20;;;;;;5005910;28;20025;-92
2021/09/15 04:53:16;;;;;;;9.20;7.38;;;20.20;97.20;;;;;;5021685;28;20048;-91
2021/09/15 04:55:42;;;;;;;9.68;7.65;;;20.20;97.20;;;;;;5025945;28;20083;-92
2021/09/15 04:58:08;;;;;;;8.48;7.57;;;20.20;97.20;;;;;;5003767;28;20087;-91
2021/09/15 05:00:34;;;;;;;9.25;7.60;;;20.20;97.20;;;;;;5021032;28;20029;-92
2021/09/15 05:03:00;;;;;;;8.00;6.82;;;20.20;97.20;;;;;;5008463;28;20036;-91
2021/09/15 05:05:25;;;;;;;8.55;7.22;;;20.20;97.30;;;;;;5019002;28;20029;-91
2021/09/15 05:07:51;;;;;;;8.98;7.45;;;20.20;97.30;;;;;;5015813;22;20057;-86
2021/09/15 05:10:17;;;;;;;9.23;7.78;;;20.20;97.30;;;;;;4968660;28;20049;-85
2021/09/15 05:12:42;;;;;;;9.30;7.45;;;20.20;97.30;;;;;;4958376;28;20023;-86
2021/09/15 05:15:09;;;;;;;8.68;7.63;;;20.20;97.40;;;;;;5001573;28;20361;-87
2021/09/15 05:17:35;;;;;;;9.57;7.68;;;20.20;97.30;;;;;;4957483;28;20504;-86
2021/09/15 05:20:01;;;;;;;9.23;7.57;;;20.20;97.40;;;;;;4957364;28;20027;-87
2021/09/15 05:22:27;;;;;;;8.63;7.18;;;20.20;97.40;;;;;;4973070;28;20037;-86
2021/09/15 05:24:54;;;;;;;8.35;7.35;;;20.20;97.40;;;;;;4972711;28;20030;-86
2021/09/15 05:27:20;;;;;;;8.20;7.22;;;20.20;97.40;;;;;;4972992;28;20026;-87
2021/09/15 05:29:46;;;;;;;10.27;7.63;;;20.20;97.40;;;;;;4972750;28;20031;-86
2021/09/15 05:32:12;;;;;;;9.05;7.10;;;20.20;97.40;;;;;;4955344;28;20027;-92
2021/09/15 05:34:39;;;;;;;8.73;7.40;;;20.20;97.40;;;;;;4958678;28;20050;-92
2021/09/15 05:37:07;;;;;;;8.57;7.68;;;20.20;97.40;;;;;;4963771;28;20039;-90
2021/09/15 05:39:33;;;;;;;10.00;8.00;;;20.20;97.40;;;;;;4986456;28;20799;-89
2021/09/15 05:41:59;;;;;;;10.38;7.70;;;20.20;97.50;;;;;;4956820;28;20118;-89
2021/09/15 05:44:24;;;;;;;9.98;8.27;;;20.10;97.60;;;;;;4957651;28;20345;-88
2021/09/15 05:46:50;;;;;;;10.00;8.73;;;20.10;98.10;;;;;;4969917;28;20030;-88
2021/09/15 05:49:15;;;;;;;11.02;8.57;;;20.10;98.40;;;;;;4958690;28;20034;-89
2021/09/15 05:51:41;;;;;;;10.10;8.70;;;20.10;98.80;;;;;;4990550;28;20023;-88
2021/09/15 05:54:08;;;;;;;12.10;9.15;;;20.00;99.10;;;;;;4971084;28;20030;-88
2021/09/15 05:56:34;;;;;;;12.63;9.55;;;20.00;99.30;;;;;;4992918;28;20019;-87
2021/09/15 05:58:59;;;;;;;14.90;10.57;;;19.90;99.40;;;;;;4967653;28;20038;-89
2021/09/15 06:01:25;;;;;;;11.13;9.93;;;20.00;99.50;;;;;;4962050;28;20045;-89
2021/09/15 06:03:51;;;;;;;12.07;10.63;;;19.90;99.60;;;;;;4987303;28;20042;-89
2021/09/15 06:06:17;;;;;;;12.15;10.85;;;19.90;99.60;;;;;;4964944;28;20085;-88
2021/09/15 06:08:42;;;;;;;15.50;11.38;;;19.90;99.90;;;;;;4973298;28;20042;-88
2021/09/15 06:11:08;;;;;;;13.05;11.07;;;19.80;99.70;;;;;;4957802;28;20093;-89
2021/09/15 06:13:35;;;;;;;14.23;11.98;;;19.80;99.80;;;;;;4967968;28;20153;-89
2021/09/15 06:16:01;;;;;;;13.60;12.13;;;19.80;99.80;;;;;;4959619;28;20027;-89
2021/09/15 06:18:27;;;;;;;13.88;11.73;;;19.80;99.90;;;;;;4973262;28;20027;-90
2021/09/15 06:20:52;;;;;;;13.68;12.15;;;19.70;99.90;;;;;;4958056;28;20441;-89
2021/09/15 06:23:18;;;;;;;14.73;13.02;;;19.70;99.90;;;;;;4969916;28;20503;-89
2021/09/15 06:25:44;;;;;;;14.00;12.15;;;19.70;99.90;;;;;;4973628;28;20536;-89
2021/09/15 06:28:12;;;;;;;15.10;13.02;;;19.70;99.90;;;;;;4957284;28;20114;-90
2021/09/15 06:30:41;;;;;;;15.63;13.25;;;19.70;99.90;;;;;;4982150;28;20022;-90
2021/09/15 06:33:07;;;;;;;13.77;12.38;;;19.70;99.90;;;;;;4978475;28;20407;-88
2021/09/15 06:35:33;;;;;;;14.35;12.45;;;19.70;99.90;;;;;;4980471;28;20038;-89
2021/09/15 06:38:12;;;;;;;14.77;13.20;;;19.70;99.90;;;;;;4965465;28;20031;-90
2021/09/15 06:40:38;;;;;;;15.40;13.27;;;19.70;99.90;;;;;;4962087;28;20469;-91
2021/09/15 06:43:04;;;;;;;14.55;12.90;;;19.70;99.90;;;;;;4959088;28;20551;-89
2021/09/15 06:45:30;;;;;;;14.93;13.18;;;19.70;99.90;;;;;;4967796;28;20058;-88
2021/09/15 06:47:55;;;;;;;15.35;13.73;;;19.70;99.90;;;;;;4971482;28;20077;-88
2021/09/15 06:50:21;;;;;;;16.73;13.95;;;19.70;99.90;;;;;;4975168;28;20081;-89
2021/09/15 06:52:49;;;;;;;16.25;14.50;;;19.70;99.90;;;;;;4955922;28;20441;-89
2021/09/15 06:55:15;;;;;;;16.60;14.13;;;19.70;99.90;;;;;;4976023;28;20035;-88
2021/09/15 06:57:41;;;;;;;17.23;14.75;;;19.70;99.90;;;;;;4972180;28;20602;-89
2021/09/15 07:00:09;;;;;;;16.83;14.52;;;19.70;99.90;;;;;;4970055;28;20031;-90
2021/09/15 07:02:35;;;;;;;18.95;15.68;;;19.70;99.90;;;;;;4964527;28;20090;-88
2021/09/15 07:05:01;;;;;;;19.48;15.23;;;19.80;99.90;;;;;;4974294;28;20115;-89
2021/09/15 07:07:26;;;;;;;18.40;15.02;;;19.70;99.90;;;;;;4977441;28;20030;-88
2021/09/15 07:09:52;;;;;;;18.95;14.60;;;19.70;99.90;;;;;;4976875;28;20043;-88
2021/09/15 07:12:18;;;;;;;17.88;15.05;;;19.70;99.90;;;;;;4974389;28;20027;-88
2021/09/15 07:14:43;;;;;;;19.45;15.95;;;19.70;99.90;;;;;;4964210;28;20727;-89
2021/09/15 07:17:09;;;;;;;16.85;14.32;;;19.80;99.90;;;;;;4954904;28;20026;-88
2021/09/15 07:19:35;;;;;;;17.15;15.15;;;19.70;99.90;;;;;;4974562;28;20050;-88
2021/09/15 07:22:03;;;;;;;15.70;14.00;;;19.70;99.90;;;;;;4986526;28;20026;-88
2021/09/15 07:24:29;;;;;;;16.13;14.07;;;19.70;99.90;;;;;;4975266;28;20042;-88
2021/09/15 07:27:03;;;;;;;15.05;13.45;;;19.80;99.90;;;;;;4975098;28;20400;-88
2021/09/15 07:29:28;;;;;;;15.73;14.02;;;19.80;99.90;;;;;;4975185;28;20030;-89
2021/09/15 07:31:54;;;;;;;17.42;14.63;;;19.80;99.90;;;;;;4966146;28;20031;-89
2021/09/15 07:34:19;;;;;;;18.45;15.20;;;19.80;99.90;;;;;;4977585;28;20031;-89
2021/09/15 07:36:45;;;;;;;18.08;15.35;;;19.80;99.90;;;;;;4970573;28;20023;-85
2021/09/15 07:39:11;;;;;;;18.48;15.68;;;19.80;99.90;;;;;;4959167;28;20041;-86
2021/09/15 07:41:36;;;;;;;19.77;15.77;;;19.80;99.90;;;;;;4958726;28;20019;-86
2021/09/15 07:44:02;;;;;;;18.10;14.98;;;19.80;99.90;;;;;;4985748;28;20034;-87
2021/09/15 07:46:28;;;;;;;21.58;16.67;;;19.80;99.90;;;;;;5002046;28;20046;-87
2021/09/15 07:48:54;;;;;;;21.98;17.42;;;19.80;99.90;;;;;;5007886;28;20030;-87
2021/09/15 07:51:21;;;;;;;23.50;17.00;;;19.80;99.90;;;;;;4996075;28;20034;-87
2021/09/15 07:53:47;;;;;;;21.58;17.15;;;19.80;99.90;;;;;;4978462;28;20027;-87
2021/09/15 07:56:13;;;;;;;18.88;15.55;;;19.80;99.90;;;;;;4964664;28;20027;-88
2021/09/15 07:58:39;;;;;;;20.17;15.95;;;19.80;99.90;;;;;;4958997;28;20427;-88
2021/09/15 08:01:05;;;;;;;19.38;15.35;;;19.80;99.90;;;;;;4971425;28;20031;-88
2021/09/15 08:03:31;;;;;;;19.05;15.32;;;19.80;99.90;;;;;;4970267;28;20050;-88
2021/09/15 08:06:01;;;;;;;19.90;14.73;;;19.80;99.90;;;;;;4980205;28;20061;-88
2021/09/15 08:08:27;;;;;;;19.23;14.98;;;19.80;99.90;;;;;;4978424;28;20511;-87
2021/09/15 08:10:53;;;;;;;22.13;17.08;;;19.80;99.90;;;;;;4977379;28;20023;-88
2021/09/15 08:13:20;;;;;;;20.13;16.85;;;19.80;99.90;;;;;;4975828;28;20460;-88
2021/09/15 08:15:46;;;;;;;21.67;17.40;;;19.80;99.90;;;;;;4973983;28;20125;-88
2021/09/15 08:18:12;;;;;;;21.63;17.63;;;19.80;99.90;;;;;;4975010;28;20034;-88
2021/09/15 08:20:38;;;;;;;23.55;17.83;;;19.80;99.90;;;;;;4972046;28;20036;-87
2021/09/15 08:23:04;;;;;;;21.92;17.02;;;19.80;99.90;;;;;;4958247;28;20035;-88
2021/09/15 08:25:30;;;;;;;21.73;16.73;;;19.90;99.90;;;;;;4974175;28;20080;-88
2021/09/15 08:27:56;;;;;;;21.67;16.73;;;19.90;99.90;;;;;;4957752;28;20027;-87
2021/09/15 08:30:22;;;;;;;21.65;17.10;;;19.90;99.90;;;;;;4974389;28;20035;-88
2021/09/15 08:32:48;;;;;;;23.30;18.23;;;19.90;99.90;;;;;;4977554;28;20050;-88
2021/09/15 08:35:15;;;;;;;23.10;18.02;;;19.90;99.90;;;;;;4982356;28;20099;-87
2021/09/15 08:37:40;;;;;;;24.88;18.10;;;20.00;99.90;;;;;;4974448;28;20023;-88
2021/09/15 08:40:09;;;;;;;27.10;19.33;;;20.00;99.90;;;;;;4984252;28;20425;-88
2021/09/15 08:42:34;;;;;;;26.73;20.85;;;20.00;99.90;;;;;;4980877;28;20023;-88
2021/09/15 08:45:03;;;;;;;28.05;21.75;;;20.00;99.90;;;;;;4996637;28;20014;-87
2021/09/15 08:47:32;;;;;;;29.15;22.63;;;20.10;99.90;;;;;;4983804;28;20492;-87
2021/09/15 08:49:58;;;;;;;31.63;24.65;;;20.10;99.90;;;;;;4985113;28;20384;-87
2021/09/15 08:52:24;;;;;;;28.88;22.88;;;20.10;99.90;;;;;;4998507;28;20046;-87
2021/09/15 08:54:50;;;;;;;29.48;23.65;;;20.10;99.90;;;;;;4965056;28;20023;-86
2021/09/15 08:57:28;;;;;;;31.05;23.52;;;20.10;99.90;;;;;;4977106;28;20428;-86
2021/09/15 08:59:53;;;;;;;33.10;25.30;;;20.20;99.90;;;;;;4972148;28;20113;-86
2021/09/15 09:02:20;;;;;;;31.98;24.75;;;20.20;99.90;;;;;;4973425;28;20031;-86
2021/09/15 09:04:54;;;;;;;32.80;25.90;;;20.20;99.90;;;;;;4973099;28;20023;-86
2021/09/15 09:07:20;;;;;;;35.40;26.60;;;20.20;99.90;;;;;;4973187;28;20051;-86
2021/09/15 09:09:51;;;;;;;40.42;27.00;;;20.20;99.90;;;;;;4986723;28;20460;-87
2021/09/15 09:12:19;;;;;;;36.92;27.17;;;20.30;99.90;;;;;;4986026;28;20099;-86
2021/09/15 09:14:45;;;;;;;36.25;27.83;;;20.30;99.90;;;;;;4974575;28;20073;-87
2021/09/15 09:17:33;;;;;;;45.00;30.60;;;20.30;99.90;;;;;;4988095;28;20472;-86
2021/09/15 09:20:28;;;;;;;46.38;30.42;;;20.40;99.90;;;;;;4973577;28;20041;-86
2021/09/15 09:23:01;;;;;;;51.22;31.67;;;20.30;99.90;;;;;;4974131;28;20055;-86
2021/09/15 09:25:29;;;;;;;48.28;32.25;;;20.40;99.90;;;;;;4974173;28;20081;-86
2021/09/15 09:27:55;;;;;;;48.40;34.58;;;20.40;99.90;;;;;;4972718;28;20396;-87
2021/09/15 09:30:29;;;;;;;49.92;33.00;;;20.40;99.90;;;;;;4982867;28;20022;-86
2021/09/15 09:32:56;;;;;;;52.85;35.05;;;20.40;99.90;;;;;;4961507;28;20031;-86
2021/09/15 09:35:22;;;;;;;52.80;35.08;;;20.40;99.90;;;;;;4985438;28;20034;-87
2021/09/15 09:37:48;;;;;;;51.35;35.70;;;20.40;99.90;;;;;;4958873;28;20053;-86
2021/09/15 09:40:19;;;;;;;51.45;34.67;;;20.40;99.90;;;;;;4970257;28;20054;-86
2021/09/15 09:42:45;;;;;;;55.80;35.65;;;20.40;99.90;;;;;;4981689;28;20077;-86
2021/09/15 09:45:15;;;;;;;57.03;36.00;;;20.40;99.90;;;;;;4962666;28;20031;-85
2021/09/15 09:47:42;;;;;;;60.45;38.78;;;20.40;99.90;;;;;;4972430;28;20065;-86
2021/09/15 09:50:18;;;;;;;70.82;41.25;;;20.50;99.90;;;;;;5000875;28;20125;-86
2021/09/15 09:52:59;;;;;;;66.35;41.10;;;20.50;99.90;;;;;;4986181;28;20026;-85
2021/09/15 09:55:25;;;;;;;;;;;20.50;99.90;;;;;;4985665;28;20034;-85
2021/09/15 09:57:52;;;;;;;70.88;40.80;;;20.50;99.90;;;;;;4974997;28;19965;-85
2021/09/15 10:00:20;;;;;;;66.88;41.45;;;20.50;99.90;;;;;;4961746;28;20130;-87
2021/09/15 10:02:46;;;;;;;72.80;42.17;;;20.50;99.90;;;;;;4981950;28;20396;-88
2021/09/15 10:05:17;;;;;;;76.20;43.35;;;20.50;99.90;;;;;;4963030;28;20453;-88
2021/09/15 10:07:44;;;;;;;;;;;20.50;99.90;;;;;;4975975;28;20043;-87
2021/09/15 10:10:12;;;;;;;75.00;41.38;;;20.50;99.90;;;;;;4973891;28;19914;-87
2021/09/15 10:12:38;;;;;;;74.15;43.22;;;20.50;99.90;;;;;;4985889;28;20030;-88
2021/09/15 10:15:06;;;;;;;73.60;44.08;;;20.50;99.90;;;;;;4973915;28;20034;-88
2021/09/15 10:17:35;;;;;;;78.60;46.08;;;20.60;99.90;;;;;;4972639;28;20026;-88
2021/09/15 10:20:01;;;;;;;85.43;46.80;;;20.50;99.90;;;;;;4972703;28;20029;-87
2021/09/15 10:22:31;;;;;;;85.18;48.28;;;20.60;99.90;;;;;;4972778;28;20027;-88
2021/09/15 10:24:58;;;;;;;88.13;50.07;;;20.60;99.90;;;;;;4985858;28;20089;-88
2021/09/15 10:27:26;;;;;;;96.28;53.10;;;20.60;99.90;;;;;;4979584;28;20023;-88
2021/09/15 10:30:09;;;;;;;97.03;51.72;;;20.60;99.90;;;;;;4971206;28;20027;-88
2021/09/15 10:32:44;;;;;;;94.22;50.70;;;20.60;99.90;;;;;;4970611;28;20026;-88
2021/09/15 10:35:10;;;;;;;103.63;52.65;;;20.60;99.90;;;;;;4972245;28;20037;-88
2021/09/15 10:37:35;;;;;;;95.57;51.55;;;20.60;99.90;;;;;;4955467;28;20031;-88
2021/09/15 10:40:05;;;;;;;92.90;50.75;;;20.60;99.90;;;;;;4974120;28;20027;-88
2021/09/15 10:45:17;;;;;;;101.43;52.17;;;20.60;99.90;;;;;;4978441;28;20077;-88
2021/09/15 10:47:53;;;;;;;96.90;49.22;;;20.60;99.90;;;;;;4975063;28;20038;-88
2021/09/15 10:50:40;;;;;;;97.20;50.15;;;20.60;99.90;;;;;;4969167;28;20019;-88
2021/09/15 10:53:17;;;;;;;90.47;45.92;;;20.60;99.90;;;;;;4989745;28;20388;-88
2021/09/15 10:55:49;;;;;;;94.68;46.88;;;20.60;99.90;;;;;;4979908;28;20114;-88
2021/09/15 10:58:24;;;;;;;93.63;46.40;;;20.60;99.90;;;;;;4964977;28;20047;-89
2021/09/15 11:00:58;;;;;;;89.25;43.28;;;20.60;99.90;;;;;;4964329;28;20022;-86
2021/09/15 11:03:41;;;;;;;88.50;43.92;;;20.60;99.90;;;;;;4977406;28;20158;-88
2021/09/15 11:06:07;;;;;;;93.00;45.42;;;20.70;99.90;;;;;;4977229;23;20015;-87
2021/09/15 11:08:47;;;;;;;97.70;46.03;;;20.70;99.90;;;;;;5021080;28;20177;-88
2021/09/15 11:11:19;;;;;;;88.88;44.70;;;20.70;99.90;;;;;;5018305;28;20035;-88
2021/09/15 11:14:07;;;;;;;100.75;45.45;;;20.70;99.90;;;;;;5019462;28;20121;-87
2021/09/15 11:16:38;;;;;;;87.03;44.67;;;20.70;99.90;;;;;;5007310;28;20096;-88
2021/09/15 11:19:14;;;;;;;84.22;42.35;;;20.80;99.90;;;;;;5021465;28;20136;-87
2021/09/15 11:21:56;;;;;;;74.65;39.08;;;20.70;99.90;;;;;;5008617;28;20031;-88
2021/09/15 11:24:24;;;;;;;75.13;36.53;;;20.70;99.90;;;;;;5005147;28;20049;-86
2021/09/15 11:26:58;;;;;;;68.25;35.60;;;20.80;99.90;;;;;;5000217;28;20491;-87
2021/09/15 11:29:48;;;;;;;72.38;36.15;;;20.70;99.90;;;;;;5030761;28;20117;-87
2021/09/15 11:32:18;;;;;;;73.32;39.20;;;20.80;99.90;;;;;;5019264;28;20022;-85
2021/09/15 11:34:47;;;;;;;75.47;39.27;;;20.80;99.90;;;;;;4989997;28;20480;-88
2021/09/15 11:37:33;;;;;;;76.57;38.92;;;20.80;99.90;;;;;;4997005;28;20619;-87
2021/09/15 11:40:00;;;;;;;68.07;36.28;;;20.80;99.90;;;;;;5008666;28;20030;-87
2021/09/15 11:42:30;;;;;;;75.10;40.55;;;20.80;99.90;;;;;;5007713;28;20029;-85
2021/09/15 11:45:16;;;;;;;88.67;49.27;;;20.80;99.90;;;;;;5008562;28;20037;-88
2021/09/15 11:47:47;;;;;;;80.63;48.30;;;20.80;99.90;;;;;;5003985;28;20022;-88
2021/09/15 11:50:23;;;;;;;67.55;41.92;;;20.70;99.90;;;;;;4998592;28;20432;-88
2021/09/15 11:52:54;;;;;;;72.95;42.17;;;20.70;99.90;;;;;;5031797;28;20097;-88
2021/09/15 11:55:20;;;;;;;70.93;42.13;;;20.70;99.90;;;;;;4999450;28;20539;-87
2021/09/15 11:57:58;;;;;;;70.70;44.25;;;20.70;99.90;;;;;;5000155;28;20030;-88
2021/09/15 12:00:24;;;;;;;67.78;44.70;;;20.70;99.90;;;;;;5008198;28;20041;-87
2021/09/15 12:02:51;;;;;;;67.38;44.38;;;20.60;99.90;;;;;;5033436;28;20025;-88
2021/09/15 12:05:19;;;;;;;62.83;42.15;;;20.60;99.90;;;;;;5020069;28;20026;-87
2021/09/15 12:07:45;;;;;;;47.78;36.05;;;20.60;99.90;;;;;;5024554;28;20042;-87
2021/09/15 12:10:12;;;;;;;40.92;30.77;;;20.60;99.90;;;;;;4986568;28;20028;-87
2021/09/15 12:12:39;;;;;;;36.53;27.80;;;20.60;99.90;;;;;;4994333;28;20026;-88
2021/09/15 12:15:08;;;;;;;33.50;25.95;;;20.50;99.90;;;;;;4977479;28;20026;-88
2021/09/15 12:17:35;;;;;;;31.33;23.30;;;20.50;99.90;;;;;;4978179;28;20021;-86
2021/09/15 12:20:02;;;;;;;26.38;20.08;;;20.50;99.90;;;;;;5001110;28;20034;-88
2021/09/15 12:22:31;;;;;;;23.05;17.30;;;20.40;99.90;;;;;;4975276;28;20026;-88
2021/09/15 12:25:07;;;;;;;25.08;18.15;;;20.40;99.90;;;;;;4977581;28;20034;-88
2021/09/15 12:27:33;;;;;;;21.35;15.95;;;20.40;99.90;;;;;;4982918;28;20033;-87
2021/09/15 12:30:07;;;;;;;20.85;15.55;;;20.40;99.90;;;;;;5008157;28;20032;-88
2021/09/15 12:32:38;;;;;;;24.88;17.60;;;20.40;99.90;;;;;;5016438;28;20478;-87
2021/09/15 12:35:04;;;;;;;;;;;20.50;99.90;;;;;;5012726;28;20479;-87
2021/09/15 12:37:37;;;;;;;20.23;15.70;;;20.50;99.90;;;;;;5001497;28;19960;-87
2021/09/15 12:40:03;;;;;;;17.90;14.73;;;20.50;99.90;;;;;;4997021;28;20029;-86
2021/09/15 12:42:39;;;;;;;13.65;12.07;;;20.50;99.90;;;;;;4976889;28;20038;-87
2021/09/15 12:45:05;;;;;;;14.20;11.23;;;20.60;99.90;;;;;;4979601;28;20049;-87
2021/09/15 12:47:45;;;;;;;12.35;9.32;;;20.50;99.90;;;;;;5006401;28;20072;-86
2021/09/15 12:50:34;;;;;;;11.90;8.45;;;20.50;99.90;;;;;;5012266;28;20391;-87